createdAt,value
2018-09-18T00:00:54.826Z,86.50
2018-09-18T00:03:23.433Z,85.60
2018-09-18T00:05:52.018Z,84.50
2018-09-18T00:08:20.600Z,86.10
2018-09-18T00:10:49.170Z,86.30
2018-09-18T00:13:17.765Z,86.40
2018-09-18T00:15:46.324Z,87.90
2018-09-18T00:18:14.941Z,86.50
2018-09-18T00:20:43.506Z,86.00
2018-09-18T00:23:12.124Z,86.30
2018-09-18T00:25:40.742Z,87.10
2018-09-18T00:28:09.939Z,87.90
2018-09-18T00:30:38.541Z,86.90
2018-09-18T00:33:07.204Z,87.50
2018-09-18T00:35:36.294Z,86.30
2018-09-18T00:38:04.876Z,85.30
2018-09-18T00:40:33.481Z,85.00
2018-09-18T00:43:02.054Z,85.30
2018-09-18T00:45:30.646Z,86.10
2018-09-18T00:47:59.246Z,88.10
2018-09-18T00:50:27.838Z,86.80
2018-09-18T00:52:56.410Z,87.70
2018-09-18T00:55:25.027Z,85.90
2018-09-18T00:57:53.594Z,87.30
2018-09-18T01:00:22.404Z,87.90
2018-09-18T01:02:50.990Z,88.00
2018-09-18T01:05:19.677Z,87.50
2018-09-18T01:07:48.313Z,86.80
2018-09-18T01:10:16.904Z,87.40
2018-09-18T01:12:45.469Z,88.70
2018-09-18T01:15:14.173Z,89.00
2018-09-18T01:17:42.733Z,86.90
2018-09-18T01:20:11.324Z,90.00
2018-09-18T01:22:39.880Z,86.80
2018-09-18T01:25:08.503Z,87.70
2018-09-18T01:27:37.074Z,87.60
2018-09-18T01:30:05.890Z,88.70
2018-09-18T01:32:34.468Z,88.60
2018-09-18T01:35:03.059Z,89.00
2018-09-18T01:37:31.622Z,90.20
2018-09-18T01:40:00.238Z,87.50
2018-09-18T01:42:28.823Z,88.60
2018-09-18T01:44:57.487Z,89.00
2018-09-18T01:47:26.093Z,89.40
2018-09-18T01:49:54.884Z,90.60
2018-09-18T01:52:23.468Z,88.20
2018-09-18T01:54:52.028Z,89.30
2018-09-18T01:57:20.648Z,90.10
2018-09-18T01:59:49.702Z,89.50
2018-09-18T02:02:18.288Z,89.40
2018-09-18T02:04:46.874Z,89.50
2018-09-18T02:07:15.468Z,90.20
2018-09-18T02:09:44.024Z,88.80
2018-09-18T02:12:12.625Z,87.80
2018-09-18T02:14:41.189Z,88.70
2018-09-18T02:17:09.785Z,89.10
2018-09-18T02:19:38.357Z,89.40
2018-09-18T02:22:07.125Z,90.40
2018-09-18T02:24:36.036Z,90.10
2018-09-18T02:27:04.805Z,89.40
2018-09-18T02:29:33.366Z,89.30
2018-09-18T02:32:01.971Z,90.10
2018-09-18T02:34:30.569Z,90.30
2018-09-18T02:36:59.166Z,90.90
2018-09-18T02:39:27.763Z,91.00
2018-09-18T02:41:56.344Z,88.40
2018-09-18T02:44:24.904Z,90.80
2018-09-18T02:46:53.544Z,90.40
2018-09-18T02:49:22.220Z,90.70
2018-09-18T02:51:50.817Z,90.10
2018-09-18T02:54:19.389Z,90.20
2018-09-18T02:56:47.989Z,90.00
2018-09-18T02:59:16.551Z,89.00
2018-09-18T03:01:45.161Z,90.60
2018-09-18T03:04:13.729Z,90.10
2018-09-18T03:06:42.312Z,90.10
2018-09-18T03:09:11.648Z,91.40
2018-09-18T03:11:40.230Z,89.30
2018-09-18T03:14:09.919Z,90.10
2018-09-18T03:16:38.534Z,90.80
2018-09-18T03:19:07.154Z,90.30
2018-09-18T03:21:35.888Z,91.00
2018-09-18T03:24:04.805Z,90.60
2018-09-18T03:26:33.622Z,91.40
2018-09-18T03:29:02.210Z,90.70
2018-09-18T03:31:30.777Z,91.40
2018-09-18T03:33:59.401Z,91.00
2018-09-18T03:36:27.974Z,91.30
2018-09-18T03:38:56.633Z,90.90
2018-09-18T03:41:25.280Z,92.00
2018-09-18T03:43:53.872Z,91.20
2018-09-18T03:46:22.502Z,91.50
2018-09-18T03:48:51.150Z,91.20
2018-09-18T03:51:19.717Z,91.50
2018-09-18T03:53:48.326Z,92.70
2018-09-18T03:56:16.907Z,91.90
2018-09-18T03:58:45.508Z,91.70
2018-09-18T04:01:14.087Z,91.00
2018-09-18T04:03:42.724Z,89.40
2018-09-18T04:06:12.127Z,90.10
2018-09-18T04:08:40.740Z,91.20
2018-09-18T04:11:09.348Z,92.50
2018-09-18T04:13:37.937Z,91.50
2018-09-18T04:16:06.528Z,91.20
2018-09-18T04:18:35.175Z,92.80
2018-09-18T04:21:03.745Z,91.40
2018-09-18T04:23:32.380Z,91.20
2018-09-18T04:26:00.941Z,91.70
2018-09-18T04:28:29.663Z,91.00
2018-09-18T04:30:58.234Z,90.70
2018-09-18T04:33:26.943Z,91.20
2018-09-18T04:35:55.542Z,91.00
2018-09-18T04:38:24.235Z,90.70
2018-09-18T04:40:52.825Z,91.50
2018-09-18T04:43:21.567Z,92.30
2018-09-18T04:45:50.152Z,91.60
2018-09-18T04:48:18.757Z,91.80
2018-09-18T04:50:47.421Z,92.00
2018-09-18T04:53:16.067Z,91.80
2018-09-18T04:55:44.641Z,91.40
2018-09-18T04:58:13.229Z,92.30
2018-09-18T05:00:41.790Z,91.60
2018-09-18T05:03:11.818Z,90.90
2018-09-18T05:05:40.384Z,90.30
2018-09-18T05:08:09.125Z,91.40
2018-09-18T05:10:37.732Z,92.00
2018-09-18T05:13:06.365Z,92.20
2018-09-18T05:15:34.969Z,91.50
2018-09-18T05:18:03.550Z,92.60
2018-09-18T05:20:32.206Z,92.20
2018-09-18T05:23:00.916Z,92.50
2018-09-18T05:25:29.556Z,92.40
2018-09-18T05:27:58.192Z,92.10
2018-09-18T05:30:26.797Z,92.70
2018-09-18T05:32:55.351Z,92.80
2018-09-18T05:35:23.971Z,91.30
2018-09-18T05:37:52.574Z,93.40
2018-09-18T05:40:21.417Z,92.80
2018-09-18T05:42:49.992Z,92.10
2018-09-18T05:45:18.580Z,91.60
2018-09-18T05:47:47.156Z,91.30
2018-09-18T05:50:15.757Z,91.00
2018-09-18T05:52:44.325Z,92.90
2018-09-18T05:55:13.529Z,91.90
2018-09-18T05:57:42.110Z,91.70
2018-09-18T06:00:10.930Z,91.30
2018-09-18T06:02:39.503Z,93.10
2018-09-18T06:05:08.342Z,92.50
2018-09-18T06:07:36.913Z,93.10
2018-09-18T06:10:05.962Z,93.40
2018-09-18T06:12:34.564Z,93.50
2018-09-18T06:15:03.175Z,92.20
2018-09-18T06:17:31.885Z,93.40
2018-09-18T06:20:00.475Z,92.40
2018-09-18T06:22:29.052Z,92.10
2018-09-18T06:24:57.640Z,91.70
2018-09-18T06:27:26.200Z,93.30
2018-09-18T06:29:54.789Z,92.80
2018-09-18T06:32:23.353Z,93.10
2018-09-18T06:34:51.941Z,93.20
2018-09-18T06:37:20.677Z,92.20
2018-09-18T06:39:49.290Z,91.70
2018-09-18T06:42:17.924Z,90.90
2018-09-18T06:44:47.398Z,89.80
2018-09-18T06:47:16.773Z,86.70
2018-09-18T06:49:46.424Z,85.40
2018-09-18T06:52:15.005Z,83.90
2018-09-18T06:54:43.592Z,81.20
2018-09-18T06:57:12.156Z,79.10
2018-09-18T06:59:40.909Z,78.40
2018-09-18T07:02:10.292Z,77.10
2018-09-18T07:04:38.899Z,74.40
2018-09-18T07:07:07.474Z,74.00
2018-09-18T07:09:36.034Z,72.80
2018-09-18T07:12:04.649Z,71.70
2018-09-18T07:14:33.220Z,68.40
2018-09-18T07:17:01.966Z,68.30
2018-09-18T07:19:31.002Z,68.90
2018-09-18T07:21:59.600Z,66.20
2018-09-18T07:24:28.171Z,65.10
2018-09-18T07:26:56.752Z,65.50
2018-09-18T07:29:25.381Z,64.10
2018-09-18T07:31:53.933Z,63.00
2018-09-18T07:34:22.506Z,64.10
2018-09-18T07:36:51.198Z,61.50
2018-09-18T07:39:19.793Z,60.60
2018-09-18T07:41:48.391Z,61.00
2018-09-18T07:44:16.972Z,59.20
2018-09-18T07:46:45.578Z,57.20
2018-09-18T07:49:14.142Z,55.30
2018-09-18T07:51:42.732Z,56.30
2018-09-18T07:54:11.334Z,52.00
2018-09-18T07:56:39.925Z,54.70
2018-09-18T07:59:08.507Z,52.00
2018-09-18T08:01:37.124Z,51.20
2018-09-18T08:04:05.694Z,50.40
2018-09-18T08:06:34.341Z,51.30
2018-09-18T08:09:02.997Z,50.00
2018-09-18T08:11:32.614Z,51.60
2018-09-18T08:14:01.308Z,49.10
2018-09-18T08:16:29.911Z,48.80
2018-09-18T08:18:58.590Z,48.30
2018-09-18T08:21:27.130Z,49.00
2018-09-18T08:23:55.696Z,44.70
2018-09-18T08:26:24.848Z,43.60
2018-09-18T08:28:53.441Z,40.50
2018-09-18T08:31:22.014Z,40.90
2018-09-18T08:33:50.600Z,41.40
2018-09-18T08:36:19.174Z,39.40
2018-09-18T08:38:47.806Z,40.60
2018-09-18T08:41:16.372Z,40.80
2018-09-18T08:43:44.957Z,40.80
2018-09-18T08:46:13.583Z,38.60
2018-09-18T08:48:47.427Z,40.20
2018-09-18T08:51:15.984Z,38.60
2018-09-18T08:53:44.592Z,36.90
2018-09-18T08:56:13.166Z,37.00
2018-09-18T08:58:41.898Z,35.60
2018-09-18T09:01:10.588Z,37.80
2018-09-18T09:03:39.192Z,34.60
2018-09-18T09:06:07.902Z,36.40
2018-09-18T09:08:36.703Z,34.70
2018-09-18T09:11:06.028Z,35.80
2018-09-18T09:13:34.922Z,35.50
2018-09-18T09:16:05.653Z,36.10
2018-09-18T09:18:35.418Z,36.60
2018-09-18T09:21:04.082Z,34.40
2018-09-18T09:23:32.810Z,32.60
2018-09-18T09:26:01.413Z,31.50
2018-09-18T09:28:30.134Z,32.20
2018-09-18T09:30:58.727Z,35.30
2018-09-18T09:33:27.348Z,32.40
2018-09-18T09:35:55.917Z,35.20
2018-09-18T09:38:24.582Z,30.70
2018-09-18T09:40:53.161Z,31.60
2018-09-18T09:43:21.808Z,32.70
2018-09-18T09:45:50.504Z,34.60
2018-09-18T09:48:19.115Z,34.80
2018-09-18T09:50:47.687Z,34.20
2018-09-18T09:53:17.321Z,37.50
2018-09-18T09:55:45.923Z,35.70
2018-09-18T09:58:14.613Z,37.60
2018-09-18T10:00:48.429Z,37.10
2018-09-18T10:03:17.013Z,36.70
2018-09-18T10:05:45.577Z,37.10
2018-09-18T10:08:14.173Z,34.60
2018-09-18T10:10:42.871Z,34.30
2018-09-18T10:13:11.407Z,33.50
2018-09-18T10:15:40.253Z,34.70
2018-09-18T10:18:09.378Z,36.10
2018-09-18T10:20:37.949Z,34.00
2018-09-18T10:23:06.630Z,36.10
2018-09-18T10:25:35.247Z,36.70
2018-09-18T10:28:03.916Z,35.90
2018-09-18T10:30:32.511Z,36.30
2018-09-18T10:33:01.104Z,36.80
2018-09-18T10:35:29.749Z,37.10
2018-09-18T10:37:58.320Z,37.70
2018-09-18T10:40:26.972Z,36.70
2018-09-18T10:42:55.664Z,37.20
2018-09-18T10:45:24.334Z,35.40
2018-09-18T10:47:53.034Z,37.00
2018-09-18T10:50:21.639Z,36.90
2018-09-18T10:52:50.215Z,37.00
2018-09-18T10:55:18.822Z,37.80
2018-09-18T10:57:47.410Z,39.60
2018-09-18T11:00:15.996Z,39.40
2018-09-18T11:02:44.587Z,39.30
2018-09-18T11:05:13.196Z,40.00
2018-09-18T11:07:41.780Z,40.80
2018-09-18T11:10:11.169Z,41.70
2018-09-18T11:12:39.842Z,40.70
2018-09-18T11:15:08.572Z,41.50
2018-09-18T11:17:37.155Z,41.80
2018-09-18T11:20:05.989Z,42.20
2018-09-18T11:22:34.575Z,42.40
2018-09-18T11:25:03.211Z,42.00
2018-09-18T11:27:31.794Z,42.30
2018-09-18T11:30:00.392Z,41.80
2018-09-18T11:32:28.995Z,41.80
2018-09-18T11:34:57.584Z,42.40
2018-09-18T11:37:26.163Z,42.40
2018-09-18T11:39:54.781Z,43.00
2018-09-18T11:42:23.538Z,42.80
2018-09-18T11:44:52.146Z,42.90
2018-09-18T11:47:20.715Z,43.10
2018-09-18T11:49:49.318Z,42.60
2018-09-18T11:52:17.887Z,43.60
2018-09-18T11:54:46.465Z,43.20
2018-09-18T11:57:15.221Z,41.90
2018-09-18T11:59:43.710Z,42.40
2018-09-18T12:02:12.958Z,42.50
2018-09-18T12:04:41.613Z,43.10
2018-09-18T12:07:10.163Z,43.80
2018-09-18T12:09:38.738Z,42.90
2018-09-18T12:12:07.406Z,43.90
2018-09-18T12:14:36.004Z,43.10
2018-09-18T12:17:04.673Z,43.50
2018-09-18T12:19:33.382Z,44.40
2018-09-18T12:22:01.986Z,44.00
2018-09-18T12:24:30.559Z,43.70
2018-09-18T12:26:59.197Z,44.60
2018-09-18T12:29:27.786Z,44.20
2018-09-18T12:31:56.474Z,44.60
2018-09-18T12:34:25.044Z,44.40
2018-09-18T12:36:53.635Z,44.20
2018-09-18T12:39:22.225Z,44.90
2018-09-18T12:41:50.866Z,44.40
2018-09-18T12:44:19.462Z,44.90
2018-09-18T12:46:48.073Z,45.20
2018-09-18T12:49:16.662Z,45.30
2018-09-18T12:51:45.369Z,45.20
2018-09-18T12:54:14.000Z,45.80
2018-09-18T12:56:42.604Z,46.40
2018-09-18T12:59:11.304Z,46.00
2018-09-18T13:01:39.862Z,46.10
2018-09-18T13:04:08.506Z,46.00
2018-09-18T13:06:37.259Z,45.50
2018-09-18T13:09:08.958Z,45.10
2018-09-18T13:11:37.682Z,45.90
2018-09-18T13:14:06.458Z,45.50
2018-09-18T13:16:35.066Z,46.30
2018-09-18T13:19:03.662Z,45.60
2018-09-18T13:21:32.274Z,46.10
2018-09-18T13:24:01.822Z,46.30
2018-09-18T13:26:30.409Z,46.30
2018-09-18T13:28:58.992Z,46.20
2018-09-18T13:31:27.604Z,46.10
2018-09-18T13:33:56.232Z,46.50
2018-09-18T13:36:24.872Z,46.50
2018-09-18T13:38:53.454Z,46.70
2018-09-18T13:41:23.839Z,46.10
2018-09-18T13:43:52.405Z,46.70
2018-09-18T13:46:21.026Z,46.50
2018-09-18T13:48:49.606Z,46.80
2018-09-18T13:51:18.212Z,46.70
2018-09-18T13:53:46.834Z,47.30
2018-09-18T13:56:15.504Z,47.20
2018-09-18T13:58:44.189Z,47.90
2018-09-18T14:01:12.802Z,47.40
2018-09-18T14:03:41.406Z,47.80
2018-09-18T14:06:10.979Z,47.90
2018-09-18T14:08:39.575Z,48.20
2018-09-18T14:11:08.162Z,48.50
2018-09-18T14:13:36.766Z,48.40
2018-09-18T14:16:05.389Z,49.20
2018-09-18T14:18:33.994Z,49.00
2018-09-18T14:21:02.565Z,49.30
2018-09-18T14:23:31.182Z,49.60
2018-09-18T14:25:59.761Z,49.70
2018-09-18T14:28:28.786Z,49.60
2018-09-18T14:30:57.374Z,50.00
2018-09-18T14:33:26.067Z,50.30
2018-09-18T14:35:54.657Z,50.10
2018-09-18T14:38:23.424Z,50.00
2018-09-18T14:40:51.978Z,50.20
2018-09-18T14:43:20.921Z,50.10
2018-09-18T14:45:49.494Z,50.00
2018-09-18T14:48:18.189Z,50.70
2018-09-18T14:50:46.767Z,50.30
2018-09-18T14:53:15.410Z,49.80
2018-09-18T14:55:44.020Z,50.30
2018-09-18T14:58:12.833Z,50.50
2018-09-18T15:00:41.424Z,50.80
2018-09-18T15:03:10.018Z,50.30
2018-09-18T15:05:38.601Z,50.80
2018-09-18T15:08:07.509Z,51.00
2018-09-18T15:10:36.093Z,50.70
2018-09-18T15:13:04.738Z,50.70
2018-09-18T15:15:33.596Z,51.20
2018-09-18T15:18:02.629Z,51.00
2018-09-18T15:20:31.194Z,51.50
2018-09-18T15:22:59.793Z,52.10
2018-09-18T15:25:28.387Z,51.50
2018-09-18T15:27:56.970Z,51.50
2018-09-18T15:30:25.569Z,51.90
2018-09-18T15:32:54.150Z,51.70
2018-09-18T15:35:22.757Z,51.00
2018-09-18T15:37:51.340Z,51.20
2018-09-18T15:40:20.819Z,51.00
2018-09-18T15:42:49.445Z,51.30
2018-09-18T15:45:18.042Z,51.20
2018-09-18T15:47:46.709Z,51.10
2018-09-18T15:50:15.325Z,50.80
2018-09-18T15:52:43.892Z,50.60
2018-09-18T15:55:12.537Z,50.90
2018-09-18T15:57:41.107Z,50.90
2018-09-18T16:00:10.608Z,51.70
2018-09-18T16:02:40.284Z,51.50
2018-09-18T16:05:08.896Z,51.50
2018-09-18T16:07:37.464Z,51.60
2018-09-18T16:10:06.109Z,51.60
2018-09-18T16:12:34.674Z,51.60
2018-09-18T16:15:03.413Z,51.80
2018-09-18T16:17:31.997Z,52.20
2018-09-18T16:20:00.616Z,51.90
2018-09-18T16:22:29.217Z,52.20
2018-09-18T16:24:58.853Z,52.40
2018-09-18T16:27:27.433Z,52.60
2018-09-18T16:29:56.022Z,52.40
2018-09-18T16:32:24.580Z,52.40
2018-09-18T16:34:53.177Z,52.70
2018-09-18T16:37:21.743Z,52.80
2018-09-18T16:39:50.956Z,53.10
2018-09-18T16:42:22.433Z,53.50
2018-09-18T16:44:51.057Z,53.90
2018-09-18T16:47:19.666Z,53.80
2018-09-18T16:49:48.274Z,53.60
2018-09-18T16:52:16.887Z,54.10
2018-09-18T16:54:45.547Z,54.50
2018-09-18T16:57:14.102Z,54.00
2018-09-18T16:59:43.300Z,54.40
2018-09-18T17:02:11.907Z,54.00
2018-09-18T17:04:40.521Z,58.00
2018-09-18T17:07:09.110Z,58.60
2018-09-18T17:09:37.707Z,59.70
2018-09-18T17:12:06.545Z,59.80
2018-09-18T17:14:35.128Z,61.90
2018-09-18T17:17:04.016Z,61.50
2018-09-18T17:19:32.644Z,62.40
2018-09-18T17:22:01.246Z,64.30
2018-09-18T17:24:29.891Z,65.50
2018-09-18T17:26:58.481Z,65.60
2018-09-18T17:29:27.088Z,64.90
2018-09-18T17:31:55.714Z,67.00
2018-09-18T17:34:24.351Z,66.00
2018-09-18T17:36:52.905Z,66.40
2018-09-18T17:39:21.538Z,68.80
2018-09-18T17:41:51.746Z,68.80
2018-09-18T17:44:20.399Z,69.20
2018-09-18T17:46:50.980Z,70.50
2018-09-18T17:49:19.604Z,69.80
2018-09-18T17:51:48.214Z,69.80
2018-09-18T17:54:16.927Z,70.00
2018-09-18T17:56:45.788Z,69.20
2018-09-18T17:59:14.386Z,70.90
2018-09-18T18:01:42.994Z,71.90
2018-09-18T18:04:11.598Z,72.90
2018-09-18T18:06:40.225Z,72.30
2018-09-18T18:09:09.704Z,72.80
2018-09-18T18:11:38.400Z,72.70
2018-09-18T18:14:07.022Z,72.80
2018-09-18T18:16:35.627Z,72.00
2018-09-18T18:19:05.044Z,72.90
2018-09-18T18:21:33.709Z,74.50
2018-09-18T18:24:02.323Z,76.20
2018-09-18T18:26:30.947Z,75.80
2018-09-18T18:28:59.519Z,76.00
2018-09-18T18:31:28.125Z,76.80
2018-09-18T18:33:56.721Z,76.50
2018-09-18T18:36:25.297Z,76.30
2018-09-18T18:38:53.991Z,76.20
2018-09-18T18:41:22.599Z,76.90
2018-09-18T18:43:51.208Z,77.90
2018-09-18T18:46:19.783Z,77.10
2018-09-18T18:48:48.414Z,77.20
2018-09-18T18:51:17.010Z,76.60
2018-09-18T18:53:45.659Z,76.60
2018-09-18T18:56:14.261Z,78.60
2018-09-18T18:58:42.864Z,79.50
2018-09-18T19:01:11.440Z,79.80
2018-09-18T19:03:40.065Z,79.90
2018-09-18T19:06:08.871Z,79.90
2018-09-18T19:08:37.472Z,80.90
2018-09-18T19:11:06.058Z,80.70
2018-09-18T19:13:34.673Z,80.20
2018-09-18T19:16:03.334Z,80.20
2018-09-18T19:18:31.938Z,80.10
2018-09-18T19:21:00.575Z,80.10
2018-09-18T19:23:29.245Z,81.30
2018-09-18T19:25:57.868Z,80.80
2018-09-18T19:28:26.448Z,81.70
2018-09-18T19:30:55.118Z,81.40
2018-09-18T19:33:23.960Z,82.60
2018-09-18T19:35:52.526Z,83.70
2018-09-18T19:38:21.134Z,83.20
2018-09-18T19:40:49.742Z,82.90
2018-09-18T19:43:18.395Z,83.10
2018-09-18T19:45:46.951Z,83.10
2018-09-18T19:48:15.526Z,82.20
2018-09-18T19:50:44.152Z,82.60
2018-09-18T19:53:12.742Z,83.20
2018-09-18T19:55:41.338Z,85.50
2018-09-18T19:58:10.065Z,86.80
2018-09-18T20:00:38.660Z,84.80
2018-09-18T20:03:07.261Z,83.90
2018-09-18T20:05:35.889Z,84.90
2018-09-18T20:08:04.458Z,85.10
2018-09-18T20:10:33.093Z,84.90
2018-09-18T20:13:01.757Z,84.00
2018-09-18T20:15:30.389Z,82.30
2018-09-18T20:17:58.957Z,84.80
2018-09-18T20:20:27.556Z,85.50
2018-09-18T20:22:56.132Z,84.80
2018-09-18T20:25:24.752Z,87.60
2018-09-18T20:27:53.352Z,89.00
2018-09-18T20:30:22.076Z,87.10
2018-09-18T20:32:50.658Z,87.10
2018-09-18T20:35:19.258Z,88.10
2018-09-18T20:37:47.849Z,87.50
2018-09-18T20:40:16.487Z,88.70
2018-09-18T20:42:45.072Z,87.10
2018-09-18T20:45:13.679Z,88.20
2018-09-18T20:47:42.233Z,87.50
2018-09-18T20:50:11.241Z,87.00
2018-09-18T20:52:39.809Z,87.10
2018-09-18T20:55:08.409Z,88.00
2018-09-18T20:57:36.977Z,88.60
2018-09-18T21:00:05.856Z,88.30
2018-09-18T21:02:34.462Z,87.80
2018-09-18T21:05:03.047Z,85.20
2018-09-18T21:07:31.662Z,87.00
2018-09-18T21:10:01.151Z,86.90
2018-09-18T21:12:29.767Z,87.90
2018-09-18T21:14:58.339Z,90.30
2018-09-18T21:17:26.941Z,90.20
2018-09-18T21:19:55.499Z,87.30
2018-09-18T21:22:24.090Z,89.70
2018-09-18T21:25:00.053Z,90.20
2018-09-18T21:27:28.663Z,88.90
2018-09-18T21:29:57.241Z,89.20
2018-09-18T21:32:25.916Z,88.30
2018-09-18T21:34:54.488Z,89.00
2018-09-18T21:37:23.079Z,89.50
2018-09-18T21:39:51.704Z,90.00
2018-09-18T21:42:20.346Z,90.30
2018-09-18T21:44:48.911Z,89.10
2018-09-18T21:47:17.644Z,87.50
2018-09-18T21:49:46.256Z,90.00
2018-09-18T21:52:14.847Z,90.00
2018-09-18T21:54:43.432Z,88.00
2018-09-18T21:57:12.025Z,88.20
2018-09-18T21:59:40.753Z,88.50
2018-09-18T22:02:09.497Z,89.40
2018-09-18T22:04:38.091Z,89.70
2018-09-18T22:07:06.773Z,89.70
2018-09-18T22:09:35.299Z,90.00
2018-09-18T22:12:03.897Z,90.60
2018-09-18T22:14:32.494Z,90.00
2018-09-18T22:17:01.094Z,89.90
2018-09-18T22:19:29.697Z,89.50
2018-09-18T22:21:58.322Z,90.20
2018-09-18T22:24:26.933Z,89.60
2018-09-18T22:26:55.540Z,87.20
2018-09-18T22:29:24.569Z,89.20
2018-09-18T22:31:53.176Z,87.60
2018-09-18T22:34:21.744Z,87.60
2018-09-18T22:36:50.415Z,87.80
2018-09-18T22:39:19.041Z,89.50
2018-09-18T22:41:47.604Z,88.60
2018-09-18T22:44:16.196Z,89.10
2018-09-18T22:46:44.769Z,88.70
2018-09-18T22:49:13.508Z,88.90
2018-09-18T22:51:42.113Z,88.70
2018-09-18T22:54:10.717Z,87.90
2018-09-18T22:56:39.293Z,89.40
2018-09-18T22:59:07.901Z,90.10
2018-09-18T23:01:36.494Z,89.10
2018-09-18T23:04:05.126Z,90.70
2018-09-18T23:06:33.711Z,90.00
2018-09-18T23:09:02.371Z,90.10
2018-09-18T23:11:30.943Z,90.90
2018-09-18T23:13:59.538Z,90.10
2018-09-18T23:16:28.139Z,90.10
2018-09-18T23:18:56.733Z,90.10
2018-09-18T23:21:25.327Z,89.80
2018-09-18T23:23:53.926Z,90.00
2018-09-18T23:26:22.490Z,89.10
2018-09-18T23:28:51.073Z,90.10
2018-09-18T23:31:19.649Z,89.30
2018-09-18T23:33:48.267Z,89.10
2018-09-18T23:36:16.854Z,89.80
2018-09-18T23:38:45.794Z,88.10
2018-09-18T23:41:14.450Z,89.50
2018-09-18T23:43:43.056Z,89.80
2018-09-18T23:46:12.539Z,87.40
2018-09-18T23:48:41.147Z,89.30
2018-09-18T23:51:09.740Z,90.30
2018-09-18T23:53:38.348Z,90.00
2018-09-18T23:56:07.146Z,90.20
2018-09-18T23:58:35.841Z,88.90
